createdAt,value
2023-01-12T00:01:59.424Z,13.35
2023-01-12T00:04:26.866Z,11.43
2023-01-12T00:06:54.820Z,11.20
2023-01-12T00:09:22.222Z,11.77
2023-01-12T00:11:49.577Z,11.48
2023-01-12T00:14:16.996Z,12.32
2023-01-12T00:16:47.077Z,14.82
2023-01-12T00:19:19.171Z,10.98
2023-01-12T00:21:55.070Z,12.05
2023-01-12T00:24:24.430Z,10.77
2023-01-12T00:26:53.001Z,16.02
2023-01-12T00:29:21.337Z,11.27
2023-01-12T00:31:49.094Z,9.77
2023-01-12T00:34:17.120Z,12.20
2023-01-12T00:36:46.071Z,10.60
2023-01-12T00:39:14.602Z,7.95
2023-01-12T00:42:01.368Z,7.53
2023-01-12T00:44:47.159Z,9.43
2023-01-12T00:47:15.734Z,7.72
2023-01-12T00:49:43.703Z,7.35
2023-01-12T00:52:29.823Z,7.55
2023-01-12T00:54:58.193Z,11.20
2023-01-12T00:57:25.726Z,9.20
2023-01-12T00:59:57.813Z,9.50
2023-01-12T01:02:34.018Z,8.50
2023-01-12T01:05:01.290Z,7.60
2023-01-12T01:07:28.633Z,12.93
2023-01-12T01:09:55.949Z,8.93
2023-01-12T01:12:23.349Z,8.27
2023-01-12T01:14:50.935Z,7.20
2023-01-12T01:17:18.509Z,8.88
2023-01-12T01:19:46.978Z,7.88
2023-01-12T01:22:14.768Z,8.00
2023-01-12T01:24:42.217Z,11.30
2023-01-12T01:27:12.193Z,8.63
2023-01-12T01:29:39.507Z,8.88
2023-01-12T01:32:07.488Z,8.55
2023-01-12T01:34:35.017Z,8.10
2023-01-12T01:37:02.264Z,8.75
2023-01-12T01:39:29.526Z,10.52
2023-01-12T01:41:56.850Z,10.55
2023-01-12T01:44:30.075Z,11.02
2023-01-12T01:47:19.813Z,11.38
2023-01-12T01:49:51.429Z,11.95
2023-01-12T01:52:36.078Z,11.25
2023-01-12T01:55:57.826Z,9.35
2023-01-12T01:58:35.593Z,9.40
2023-01-12T02:01:02.914Z,9.38
2023-01-12T02:03:34.060Z,8.63
2023-01-12T02:06:06.958Z,9.63
2023-01-12T02:08:44.382Z,8.52
2023-01-12T02:11:32.235Z,8.38
2023-01-12T02:14:18.107Z,9.65
2023-01-12T02:17:14.760Z,11.07
2023-01-12T02:20:07.005Z,10.93
2023-01-12T02:23:13.564Z,10.52
2023-01-12T02:25:50.317Z,10.55
2023-01-12T02:28:35.747Z,8.60
2023-01-12T02:31:15.076Z,10.73
2023-01-12T02:34:09.413Z,9.40
2023-01-12T02:36:56.800Z,9.00
2023-01-12T02:39:39.118Z,8.32
2023-01-12T02:42:43.002Z,8.63
2023-01-12T02:45:31.670Z,11.93
2023-01-12T02:48:14.350Z,9.48
2023-01-12T02:50:46.228Z,9.45
2023-01-12T02:53:49.907Z,8.57
2023-01-12T02:56:25.908Z,9.57
2023-01-12T02:58:56.663Z,8.20
2023-01-12T03:01:25.747Z,9.07
2023-01-12T03:04:00.831Z,8.48
2023-01-12T03:06:56.391Z,7.55
2023-01-12T03:09:39.770Z,9.23
2023-01-12T03:12:18.115Z,10.05
2023-01-12T03:14:48.983Z,8.07
2023-01-12T03:17:28.699Z,7.90
2023-01-12T03:20:01.753Z,7.55
2023-01-12T03:22:30.875Z,8.02
2023-01-12T03:25:02.360Z,7.45
2023-01-12T03:27:54.874Z,8.55
2023-01-12T03:30:36.552Z,6.88
2023-01-12T03:33:06.378Z,7.28
2023-01-12T03:35:43.767Z,9.13
2023-01-12T03:38:43.826Z,7.85
2023-01-12T03:41:19.377Z,7.72
2023-01-12T03:43:52.476Z,7.53
2023-01-12T03:46:44.362Z,6.93
2023-01-12T03:49:26.914Z,6.90
2023-01-12T03:51:57.583Z,6.63
2023-01-12T03:54:26.961Z,6.88
2023-01-12T03:56:55.025Z,7.50
2023-01-12T03:59:22.723Z,7.70
2023-01-12T04:01:51.510Z,10.20
2023-01-12T04:04:20.156Z,9.25
2023-01-12T04:06:47.547Z,7.13
2023-01-12T04:09:14.888Z,8.00
2023-01-12T04:12:00.848Z,8.52
2023-01-12T04:14:28.258Z,8.57
2023-01-12T04:16:56.070Z,8.65
2023-01-12T04:19:23.409Z,9.35
2023-01-12T04:22:09.395Z,7.60
2023-01-12T04:24:36.704Z,10.83
2023-01-12T04:27:33.375Z,9.38
2023-01-12T04:30:00.687Z,7.93
2023-01-12T04:32:50.335Z,7.47
2023-01-12T04:35:18.163Z,8.05
2023-01-12T04:37:46.427Z,8.48
2023-01-12T04:40:15.558Z,9.27
2023-01-12T04:43:02.561Z,8.18
2023-01-12T04:48:07.090Z,8.60
2023-01-12T04:50:34.876Z,8.80
2023-01-12T04:53:04.042Z,7.68
2023-01-12T04:55:32.708Z,6.35
2023-01-12T04:58:00.013Z,7.85
2023-01-12T05:00:27.866Z,7.20
2023-01-12T05:02:59.492Z,9.30
2023-01-12T05:05:27.898Z,7.10
2023-01-12T05:08:14.271Z,7.13
2023-01-12T05:10:41.589Z,8.73
2023-01-12T05:13:09.013Z,8.13
2023-01-12T05:15:36.307Z,6.90
2023-01-12T05:18:04.116Z,7.82
2023-01-12T05:20:31.391Z,7.15
2023-01-12T05:22:58.804Z,6.50
2023-01-12T05:25:26.858Z,7.63
2023-01-12T05:28:00.343Z,9.25
2023-01-12T05:30:31.406Z,6.43
2023-01-12T05:32:59.565Z,6.88
2023-01-12T05:35:26.868Z,7.43
2023-01-12T05:37:57.396Z,8.68
2023-01-12T05:40:24.968Z,8.82
2023-01-12T05:43:11.290Z,6.75
2023-01-12T05:45:38.546Z,6.15
2023-01-12T05:48:06.185Z,6.50
2023-01-12T05:50:33.463Z,8.15
2023-01-12T05:53:10.406Z,7.35
2023-01-12T05:55:39.317Z,6.18
2023-01-12T05:58:06.570Z,5.65
2023-01-12T06:00:33.942Z,8.93
2023-01-12T06:03:03.030Z,7.30
2023-01-12T06:05:30.406Z,7.57
2023-01-12T06:07:58.956Z,7.60
2023-01-12T06:10:26.850Z,6.65
2023-01-12T06:13:12.734Z,8.00
2023-01-12T06:15:40.175Z,7.05
2023-01-12T06:18:07.467Z,8.57
2023-01-12T06:20:34.707Z,8.63
2023-01-12T06:23:03.676Z,5.63
2023-01-12T06:25:32.173Z,7.22
2023-01-12T06:27:59.443Z,6.38
2023-01-12T06:30:26.757Z,7.80
2023-01-12T06:32:53.985Z,7.82
2023-01-12T06:35:21.290Z,8.73
2023-01-12T06:37:48.627Z,7.13
2023-01-12T06:40:16.123Z,7.53
2023-01-12T06:42:43.446Z,7.95
2023-01-12T06:45:10.996Z,8.00
2023-01-12T06:48:00.591Z,9.15
2023-01-12T06:50:42.972Z,8.20
2023-01-12T06:53:10.365Z,8.48
2023-01-12T06:55:37.861Z,10.45
2023-01-12T06:58:05.300Z,8.25
2023-01-12T07:00:32.596Z,7.82
2023-01-12T07:03:00.004Z,7.45
2023-01-12T07:05:27.301Z,8.18
2023-01-12T07:08:00.237Z,6.97
2023-01-12T07:10:27.572Z,9.93
2023-01-12T07:12:54.943Z,13.23
2023-01-12T07:15:22.264Z,11.40
2023-01-12T07:17:56.655Z,11.52
2023-01-12T07:20:24.415Z,11.50
2023-01-12T07:22:51.700Z,6.47
2023-01-12T07:25:18.946Z,10.65
2023-01-12T07:27:51.703Z,10.90
2023-01-12T07:30:21.243Z,9.70
2023-01-12T07:32:49.194Z,11.15
2023-01-12T07:35:17.233Z,11.20
2023-01-12T07:37:51.801Z,11.52
2023-01-12T07:40:19.229Z,10.67
2023-01-12T07:42:49.446Z,11.32
2023-01-12T07:45:16.784Z,12.38
2023-01-12T07:47:51.446Z,11.23
2023-01-12T07:50:18.807Z,11.57
2023-01-12T07:52:46.034Z,11.90
2023-01-12T07:55:13.717Z,12.95
2023-01-12T07:57:40.978Z,9.57
2023-01-12T08:00:08.859Z,10.15
2023-01-12T08:02:36.163Z,9.63
2023-01-12T08:05:03.549Z,11.55
2023-01-12T08:07:32.621Z,8.82
2023-01-12T08:09:59.844Z,11.98
2023-01-12T08:12:30.398Z,10.77
2023-01-12T08:15:05.001Z,8.95
2023-01-12T08:17:37.252Z,9.52
2023-01-12T08:20:11.911Z,9.70
2023-01-12T08:22:44.097Z,9.60
2023-01-12T08:25:18.427Z,24.80
2023-01-12T08:27:48.898Z,11.65
2023-01-12T08:30:18.420Z,18.17
2023-01-12T08:32:46.105Z,15.98
2023-01-12T08:35:17.039Z,11.07
2023-01-12T08:37:44.363Z,11.25
2023-01-12T08:40:12.105Z,10.35
2023-01-12T08:42:39.502Z,10.98
2023-01-12T08:45:08.207Z,11.20
2023-01-12T08:47:37.807Z,10.15
2023-01-12T08:50:05.575Z,8.77
2023-01-12T08:52:34.519Z,8.80
2023-01-12T08:55:01.808Z,8.75
2023-01-12T08:57:29.293Z,13.50
2023-01-12T08:59:57.782Z,11.23
2023-01-12T09:02:26.950Z,10.57
2023-01-12T09:04:54.447Z,11.93
2023-01-12T09:07:22.191Z,13.40
2023-01-12T09:09:50.028Z,21.65
2023-01-12T09:12:17.412Z,14.25
2023-01-12T09:14:46.344Z,22.00
2023-01-12T09:17:13.566Z,17.90
2023-01-12T09:19:44.058Z,14.63
2023-01-12T09:22:12.215Z,19.95
2023-01-12T09:24:39.465Z,15.38
2023-01-12T09:27:06.705Z,20.58
2023-01-12T09:29:33.956Z,22.88
2023-01-12T09:32:01.341Z,20.88
2023-01-12T09:34:28.828Z,16.48
2023-01-12T09:36:57.090Z,16.05
2023-01-12T09:39:28.373Z,18.65
2023-01-12T09:42:16.114Z,20.40
2023-01-12T09:45:05.464Z,24.25
2023-01-12T09:47:39.705Z,22.60
2023-01-12T09:50:10.624Z,20.85
2023-01-12T09:52:41.125Z,23.20
2023-01-12T09:55:25.769Z,15.55
2023-01-12T09:58:22.500Z,15.57
2023-01-12T10:00:51.942Z,14.13
2023-01-12T10:03:35.370Z,17.65
2023-01-12T10:06:02.982Z,13.23
2023-01-12T10:08:38.355Z,18.38
2023-01-12T10:11:21.764Z,14.43
2023-01-12T10:14:27.680Z,15.73
2023-01-12T10:17:05.725Z,21.42
2023-01-12T10:19:35.816Z,14.23
2023-01-12T10:22:39.119Z,13.73
2023-01-12T10:25:12.374Z,17.17
2023-01-12T10:27:44.269Z,15.35
2023-01-12T10:30:31.495Z,18.10
2023-01-12T10:33:14.977Z,22.00
2023-01-12T10:36:02.959Z,17.40
2023-01-12T10:38:36.278Z,15.43
2023-01-12T10:41:11.799Z,15.95
2023-01-12T10:43:41.463Z,17.05
2023-01-12T10:46:16.582Z,17.02
2023-01-12T10:48:56.429Z,15.25
2023-01-12T10:51:29.545Z,15.77
2023-01-12T10:54:10.871Z,13.98
2023-01-12T10:56:48.425Z,17.60
2023-01-12T10:59:21.997Z,15.25
2023-01-12T11:01:53.372Z,18.67
2023-01-12T11:04:26.284Z,12.57
2023-01-12T11:07:14.069Z,17.35
2023-01-12T11:09:49.329Z,14.80
2023-01-12T11:12:34.296Z,15.70
2023-01-12T11:15:06.550Z,20.75
2023-01-12T11:18:03.858Z,19.65
2023-01-12T11:23:39.199Z,20.38
2023-01-12T11:26:23.973Z,18.75
2023-01-12T11:28:55.110Z,22.15
2023-01-12T11:31:36.609Z,25.85
2023-01-12T11:34:34.480Z,21.92
2023-01-12T11:37:13.508Z,20.88
2023-01-12T11:39:43.713Z,21.63
2023-01-12T11:42:39.991Z,19.48
2023-01-12T11:45:07.522Z,16.02
2023-01-12T11:47:42.023Z,20.88
2023-01-12T11:50:25.916Z,16.05
2023-01-12T11:52:55.097Z,16.75
2023-01-12T11:56:01.344Z,16.10
2023-01-12T11:58:48.267Z,15.82
2023-01-12T12:01:37.446Z,17.88
2023-01-12T12:04:41.929Z,16.45
2023-01-12T12:07:27.816Z,18.58
2023-01-12T12:10:23.663Z,16.83
2023-01-12T12:13:15.997Z,26.52
2023-01-12T12:15:54.994Z,27.20
2023-01-12T12:18:30.996Z,21.92
2023-01-12T12:21:35.247Z,20.52
2023-01-12T12:24:28.927Z,27.25
2023-01-12T12:27:22.315Z,33.28
2023-01-12T12:30:03.021Z,28.20
2023-01-12T12:33:07.415Z,32.45
2023-01-12T12:35:41.502Z,25.33
2023-01-12T12:38:11.737Z,29.83
2023-01-12T12:41:16.739Z,23.33
2023-01-12T12:44:04.751Z,19.02
2023-01-12T12:46:37.944Z,21.23
2023-01-12T12:49:11.513Z,17.90
2023-01-12T12:51:40.748Z,20.70
2023-01-12T12:54:15.890Z,19.63
2023-01-12T12:56:43.915Z,20.58
2023-01-12T12:59:32.878Z,16.88
2023-01-12T13:02:02.374Z,17.27
2023-01-12T13:04:46.166Z,17.50
2023-01-12T13:07:20.259Z,19.08
2023-01-12T13:09:49.243Z,18.48
2023-01-12T13:12:33.148Z,15.57
2023-01-12T13:15:22.427Z,19.02
2023-01-12T13:17:52.727Z,13.88
2023-01-12T13:20:25.590Z,13.27
2023-01-12T13:22:53.779Z,11.50
2023-01-12T13:25:22.253Z,12.35
2023-01-12T13:27:56.556Z,11.68
2023-01-12T13:30:26.874Z,10.70
2023-01-12T13:33:30.146Z,9.07
2023-01-12T13:36:04.639Z,11.07
2023-01-12T13:38:43.530Z,10.90
2023-01-12T13:41:13.960Z,10.65
2023-01-12T13:43:54.693Z,10.02
2023-01-12T13:46:26.405Z,12.73
2023-01-12T13:48:55.571Z,10.25
2023-01-12T13:51:25.281Z,13.88
2023-01-12T13:54:01.008Z,12.48
2023-01-12T13:56:28.758Z,12.15
2023-01-12T13:59:02.101Z,11.73
2023-01-12T14:01:39.611Z,9.13
2023-01-12T14:04:20.383Z,9.48
2023-01-12T14:06:56.266Z,8.93
2023-01-12T14:09:48.499Z,8.75
2023-01-12T14:12:35.953Z,7.55
2023-01-12T14:15:46.240Z,8.30
2023-01-12T14:18:18.943Z,10.88
2023-01-12T14:20:59.199Z,8.98
2023-01-12T14:23:26.821Z,13.57
2023-01-12T14:26:09.268Z,12.70
2023-01-12T14:28:37.927Z,9.52
2023-01-12T14:31:07.756Z,9.95
2023-01-12T14:33:43.909Z,12.45
2023-01-12T14:36:19.204Z,9.50
2023-01-12T14:38:46.736Z,7.73
2023-01-12T14:41:43.383Z,10.63
2023-01-12T14:44:42.850Z,6.65
2023-01-12T14:47:22.542Z,6.40
2023-01-12T14:49:50.238Z,7.70
2023-01-12T14:52:31.348Z,8.35
2023-01-12T14:55:39.008Z,8.50
2023-01-12T14:58:10.336Z,11.68
2023-01-12T15:00:42.471Z,8.20
2023-01-12T15:03:31.861Z,5.95
2023-01-12T15:06:07.006Z,8.30
2023-01-12T15:08:34.534Z,7.93
2023-01-12T15:11:09.760Z,7.15
2023-01-12T15:13:37.851Z,5.80
2023-01-12T15:16:24.565Z,9.48
2023-01-12T15:19:10.633Z,10.88
2023-01-12T15:21:57.056Z,9.18
2023-01-12T15:24:54.281Z,8.82
2023-01-12T15:27:23.347Z,9.73
2023-01-12T15:29:50.759Z,9.18
2023-01-12T15:32:41.470Z,11.82
2023-01-12T15:35:23.408Z,7.82
2023-01-12T15:37:53.281Z,8.73
2023-01-12T15:40:21.137Z,11.20
2023-01-12T15:42:48.737Z,8.50
2023-01-12T15:45:31.595Z,9.15
2023-01-12T15:47:59.148Z,9.30
2023-01-12T15:50:26.878Z,15.27
2023-01-12T15:52:54.324Z,15.45
2023-01-12T15:55:23.050Z,14.55
2023-01-12T15:57:53.297Z,12.23
2023-01-12T16:00:23.517Z,14.55
2023-01-12T16:02:52.053Z,12.80
2023-01-12T16:05:24.171Z,12.65
2023-01-12T16:07:51.950Z,19.15
2023-01-12T16:10:19.701Z,14.88
2023-01-12T16:12:48.010Z,14.43
2023-01-12T16:15:18.092Z,15.45
2023-01-12T16:17:45.800Z,13.95
2023-01-12T16:20:15.985Z,14.73
2023-01-12T16:22:43.781Z,11.50
2023-01-12T16:25:11.677Z,16.40
2023-01-12T16:27:39.339Z,11.60
2023-01-12T16:30:12.798Z,14.00
2023-01-12T16:32:45.623Z,13.68
2023-01-12T16:35:14.297Z,13.98
2023-01-12T16:37:42.056Z,13.18
2023-01-12T16:40:10.335Z,16.50
2023-01-12T16:42:37.710Z,16.58
2023-01-12T16:45:06.160Z,16.15
2023-01-12T16:47:33.524Z,14.73
2023-01-12T16:50:00.843Z,20.13
2023-01-12T16:52:28.590Z,17.00
2023-01-12T16:54:56.053Z,13.73
2023-01-12T16:57:23.571Z,16.38
2023-01-12T16:59:51.442Z,19.60
2023-01-12T17:02:19.690Z,16.17
2023-01-12T17:04:49.072Z,19.08
2023-01-12T17:07:16.487Z,18.83
2023-01-12T17:09:44.356Z,22.08
2023-01-12T17:12:11.697Z,19.23
2023-01-12T17:14:39.189Z,13.95
2023-01-12T17:17:09.515Z,16.48
2023-01-12T17:19:38.688Z,18.70
2023-01-12T17:22:07.962Z,17.35
2023-01-12T17:24:39.654Z,16.35
2023-01-12T17:27:09.206Z,18.48
2023-01-12T17:29:36.955Z,19.05
2023-01-12T17:32:07.629Z,15.18
2023-01-12T17:34:40.734Z,15.75
2023-01-12T17:37:08.503Z,16.73
2023-01-12T17:39:39.702Z,18.35
2023-01-12T17:42:26.555Z,16.80
2023-01-12T17:44:53.879Z,14.63
2023-01-12T17:47:23.530Z,20.08
2023-01-12T17:49:51.001Z,12.90
2023-01-12T17:55:12.728Z,14.13
2023-01-12T17:57:42.836Z,14.93
2023-01-12T18:00:17.791Z,14.88
2023-01-12T18:02:45.239Z,18.63
2023-01-12T18:05:14.970Z,18.23
2023-01-12T18:07:42.291Z,22.02
2023-01-12T18:10:11.400Z,20.17
2023-01-12T18:12:39.361Z,19.15
2023-01-12T18:15:07.609Z,20.17
2023-01-12T18:17:35.016Z,20.35
2023-01-12T18:23:56.769Z,21.17
2023-01-12T18:29:23.067Z,19.15
2023-01-12T18:35:34.827Z,30.75
2023-01-12T18:38:53.859Z,29.17
2023-01-12T18:41:42.714Z,28.77
2023-01-12T18:44:10.659Z,26.50
2023-01-12T18:47:01.870Z,24.58
2023-01-12T18:49:32.047Z,28.23
2023-01-12T18:52:18.923Z,23.40
2023-01-12T18:57:22.915Z,27.88
2023-01-12T18:59:55.382Z,29.17
2023-01-12T19:02:23.313Z,27.50
2023-01-12T19:04:50.824Z,34.53
2023-01-12T19:07:41.755Z,35.80
2023-01-12T19:10:09.582Z,28.17
2023-01-12T19:12:37.074Z,27.10
2023-01-12T19:15:23.446Z,28.38
2023-01-12T19:17:50.703Z,26.27
2023-01-12T19:20:19.375Z,31.10
2023-01-12T19:23:21.917Z,27.98
2023-01-12T19:26:27.409Z,27.73
2023-01-12T19:28:54.672Z,23.95
2023-01-12T19:31:21.931Z,28.45
2023-01-12T19:33:49.302Z,23.08
2023-01-12T19:36:16.614Z,28.55
2023-01-12T19:38:50.461Z,25.95
2023-01-12T19:41:36.464Z,27.80
2023-01-12T19:44:05.648Z,30.23
2023-01-12T19:46:33.257Z,24.88
2023-01-12T19:49:00.797Z,22.55
2023-01-12T19:51:28.289Z,20.65
2023-01-12T19:54:05.252Z,23.15
2023-01-12T19:56:33.175Z,21.17
2023-01-12T19:59:00.457Z,19.85
2023-01-12T20:01:29.142Z,19.00
2023-01-12T20:03:56.460Z,18.02
2023-01-12T20:06:25.108Z,20.05
2023-01-12T20:08:52.349Z,18.40
2023-01-12T20:11:19.595Z,23.70
2023-01-12T20:13:46.862Z,22.50
2023-01-12T20:16:14.205Z,22.55
2023-01-12T20:18:43.499Z,25.65
2023-01-12T20:21:11.806Z,28.35
2023-01-12T20:23:39.153Z,26.35
2023-01-12T20:26:11.303Z,26.80
2023-01-12T20:28:39.045Z,25.50
2023-01-12T20:31:12.089Z,21.30
2023-01-12T20:33:42.693Z,18.95
2023-01-12T20:36:15.149Z,20.90
2023-01-12T20:38:43.347Z,20.52
2023-01-12T20:41:13.383Z,22.30
2023-01-12T20:43:40.616Z,23.75
2023-01-12T20:46:09.675Z,25.25
2023-01-12T20:49:09.363Z,24.70
2023-01-12T20:51:37.050Z,29.20
2023-01-12T20:54:05.799Z,33.50
2023-01-12T20:56:33.095Z,33.80
2023-01-12T20:59:00.588Z,33.55
2023-01-12T21:01:33.028Z,37.42
2023-01-12T21:04:00.429Z,39.08
2023-01-12T21:06:46.876Z,34.08
2023-01-12T21:09:17.322Z,33.13
2023-01-12T21:12:21.478Z,27.40
2023-01-12T21:14:57.951Z,19.58
2023-01-12T21:17:25.323Z,26.75
2023-01-12T21:19:55.774Z,25.15
2023-01-12T21:22:25.430Z,27.42
2023-01-12T21:24:58.363Z,31.02
2023-01-12T21:27:25.621Z,42.05
2023-01-12T21:30:00.484Z,54.50
2023-01-12T21:32:30.884Z,39.60
2023-01-12T21:35:04.481Z,43.03
2023-01-12T21:37:32.233Z,43.72
2023-01-12T21:43:17.930Z,28.23
2023-01-12T21:45:52.991Z,29.63
2023-01-12T21:48:28.845Z,27.10
2023-01-12T21:51:06.545Z,29.23
2023-01-12T21:56:41.673Z,32.28
2023-01-12T21:59:10.525Z,31.48
2023-01-12T22:01:39.445Z,31.30
2023-01-12T22:04:06.846Z,45.35
2023-01-12T22:06:34.572Z,25.67
2023-01-12T22:09:02.560Z,31.67
2023-01-12T22:11:29.872Z,29.17
2023-01-12T22:13:57.651Z,160.40
2023-01-12T22:16:25.022Z,73.35
2023-01-12T22:18:52.479Z,44.83
2023-01-12T22:21:21.851Z,27.23
2023-01-12T22:23:49.461Z,21.90
2023-01-12T22:26:17.493Z,23.20
2023-01-12T22:28:47.539Z,24.98
2023-01-12T22:31:17.791Z,24.48
2023-01-12T22:33:54.970Z,23.95
2023-01-12T22:36:22.904Z,23.25
2023-01-12T22:38:53.429Z,25.67
2023-01-12T22:41:22.317Z,22.85
2023-01-12T22:43:52.536Z,25.05
2023-01-12T22:46:21.372Z,29.65
2023-01-12T22:48:50.540Z,51.13
2023-01-12T22:51:20.753Z,56.05
2023-01-12T22:53:48.534Z,29.88
2023-01-12T22:56:15.846Z,27.48
2023-01-12T22:58:50.936Z,27.75
2023-01-12T23:01:19.376Z,26.88
2023-01-12T23:03:48.208Z,26.10
2023-01-12T23:06:17.009Z,30.70
2023-01-12T23:08:45.313Z,30.60
2023-01-12T23:11:18.751Z,27.48
2023-01-12T23:13:46.547Z,29.52
2023-01-12T23:16:15.900Z,33.05
2023-01-12T23:18:44.575Z,27.20
2023-01-12T23:21:16.758Z,29.40
2023-01-12T23:23:52.322Z,27.10
2023-01-12T23:26:22.955Z,26.02
2023-01-12T23:28:55.887Z,25.52
2023-01-12T23:31:26.120Z,26.33
2023-01-12T23:33:53.690Z,26.25
2023-01-12T23:36:24.206Z,25.83
2023-01-12T23:39:00.355Z,22.05
2023-01-12T23:41:32.118Z,24.88
2023-01-12T23:44:01.615Z,23.15
2023-01-12T23:46:33.065Z,21.55
2023-01-12T23:49:00.781Z,25.00
2023-01-12T23:51:28.879Z,21.98
2023-01-12T23:53:59.200Z,19.63
2023-01-12T23:56:28.959Z,21.67
2023-01-12T23:58:56.521Z,22.75
